VTK605 UHPP-UHMM
Flight info
| Callsign | VTK605 |
|---|---|
| Flight time | 1h 26m |
| Altitude | 38000 |
| Route | BAKEN A812 OSKET |
| Aircraft | B736/M-SDE2E3FGHIRWXY/LB1 |
Departure
| Time | 2026-04-24 07:23 |
|---|---|
| Airport | Yelizovo Airport (UHPP) |
Arrival
| Time | 2026-04-24 08:50 |
|---|---|
| Airport | Sokol Airport (UHMM) |
| Time | Latitude | Longitude | Altitude | Speed | Heading |
|---|---|---|---|---|---|
| 2026-04-24 07:12 | 53.18363 | 158.43547 | 150 ft | 0 kts | 158° |
| 2026-04-24 07:21 | 53.18346 | 158.43558 | 145 ft | 3 kts | 158° |
| 2026-04-24 07:21 | 53.18319 | 158.43576 | 147 ft | 7 kts | 159° |
| 2026-04-24 07:21 | 53.18265 | 158.43618 | 147 ft | 9 kts | 141° |
| 2026-04-24 07:21 | 53.18256 | 158.43721 | 138 ft | 10 kts | 76° |
| 2026-04-24 07:22 | 53.18283 | 158.43835 | 122 ft | 11 kts | 67° |
| 2026-04-24 07:22 | 53.18314 | 158.43959 | 120 ft | 12 kts | 69° |
| 2026-04-24 07:22 | 53.18304 | 158.44088 | 126 ft | 11 kts | 122° |
| 2026-04-24 07:22 | 53.18238 | 158.44162 | 124 ft | 13 kts | 158° |
| 2026-04-24 07:23 | 53.18126 | 158.44239 | 123 ft | 22 kts | 158° |
| 2026-04-24 07:23 | 53.17761 | 158.44492 | 124 ft | 93 kts | 156° |
| 2026-04-24 07:23 | 53.16963 | 158.45043 | 140 ft | 152 kts | 158° |
| 2026-04-24 07:23 | 53.15950 | 158.45753 | 747 ft | 159 kts | 157° |
| 2026-04-24 07:24 | 53.14972 | 158.46436 | 1754 ft | 147 kts | 155° |
| 2026-04-24 07:24 | 53.14007 | 158.47114 | 2439 ft | 162 kts | 154° |
| 2026-04-24 07:24 | 53.12846 | 158.47939 | 2757 ft | 195 kts | 153° |
| 2026-04-24 07:24 | 53.11504 | 158.48881 | 3023 ft | 224 kts | 155° |
| 2026-04-24 07:25 | 53.09993 | 158.49928 | 3408 ft | 249 kts | 154° |
| 2026-04-24 07:25 | 53.08377 | 158.51032 | 4418 ft | 252 kts | 154° |
| 2026-04-24 07:25 | 53.06743 | 158.52147 | 5388 ft | 257 kts | 156° |
| 2026-04-24 07:25 | 53.05075 | 158.53284 | 6322 ft | 261 kts | 155° |
| 2026-04-24 07:26 | 53.03365 | 158.54448 | 7115 ft | 270 kts | 156° |
| 2026-04-24 07:26 | 53.01611 | 158.55646 | 7986 ft | 275 kts | 157° |
| 2026-04-24 07:26 | 52.99803 | 158.56752 | 8891 ft | 280 kts | 167° |
| 2026-04-24 07:26 | 52.97863 | 158.56609 | 9809 ft | 282 kts | 198° |
| 2026-04-24 07:27 | 52.96147 | 158.54976 | 10397 ft | 296 kts | 224° |
| 2026-04-24 07:27 | 52.94952 | 158.52062 | 10639 ft | 317 kts | 250° |
| 2026-04-24 07:27 | 52.94594 | 158.48437 | 11293 ft | 324 kts | 274° |
| 2026-04-24 07:27 | 52.95169 | 158.44834 | 12177 ft | 323 kts | 300° |
| 2026-04-24 07:28 | 52.96658 | 158.42109 | 13233 ft | 323 kts | 326° |
| 2026-04-24 07:28 | 52.98683 | 158.40523 | 14179 ft | 324 kts | 338° |
| 2026-04-24 07:28 | 53.00825 | 158.39249 | 14952 ft | 330 kts | 340° |
| 2026-04-24 07:28 | 53.03023 | 158.38020 | 15662 ft | 337 kts | 340° |
| 2026-04-24 07:29 | 53.05242 | 158.36774 | 16606 ft | 337 kts | 340° |
| 2026-04-24 07:29 | 53.07480 | 158.35489 | 17425 ft | 342 kts | 340° |
| 2026-04-24 07:29 | 53.08971 | 158.34616 | 17955 ft | 345 kts | 340° |
| 2026-04-24 07:29 | 53.11985 | 158.32820 | 18918 ft | 350 kts | 340° |
| 2026-04-24 07:30 | 53.14284 | 158.31430 | 19612 ft | 354 kts | 339° |
| 2026-04-24 07:30 | 53.16612 | 158.30011 | 20282 ft | 359 kts | 339° |
| 2026-04-24 07:30 | 53.18971 | 158.28567 | 20978 ft | 363 kts | 339° |
| 2026-04-24 07:30 | 53.21355 | 158.27102 | 21671 ft | 367 kts | 339° |
| 2026-04-24 07:31 | 53.23762 | 158.25620 | 22376 ft | 371 kts | 339° |
| 2026-04-24 07:31 | 53.25412 | 158.24603 | 22837 ft | 375 kts | 339° |
| 2026-04-24 07:31 | 53.27864 | 158.23090 | 23534 ft | 376 kts | 340° |
| 2026-04-24 07:31 | 53.30322 | 158.21569 | 24158 ft | 378 kts | 340° |
| 2026-04-24 07:32 | 53.32779 | 158.20048 | 24680 ft | 383 kts | 340° |
| 2026-04-24 07:32 | 53.35291 | 158.18492 | 25190 ft | 387 kts | 340° |
| 2026-04-24 07:32 | 53.37829 | 158.16918 | 25705 ft | 391 kts | 340° |
| 2026-04-24 07:32 | 53.40404 | 158.15319 | 26223 ft | 395 kts | 340° |
| 2026-04-24 07:33 | 53.42996 | 158.13706 | 26727 ft | 399 kts | 340° |
| 2026-04-24 07:33 | 53.45616 | 158.12073 | 27221 ft | 403 kts | 340° |
| 2026-04-24 07:33 | 53.48257 | 158.10427 | 27691 ft | 407 kts | 340° |
| 2026-04-24 07:33 | 53.50920 | 158.08764 | 28167 ft | 410 kts | 340° |
| 2026-04-24 07:34 | 53.53603 | 158.07086 | 28708 ft | 412 kts | 340° |
| 2026-04-24 07:34 | 53.56303 | 158.05394 | 29142 ft | 417 kts | 340° |
| 2026-04-24 07:34 | 53.59040 | 158.03678 | 29544 ft | 421 kts | 340° |
| 2026-04-24 07:34 | 53.61800 | 158.01945 | 29932 ft | 424 kts | 340° |
| 2026-04-24 07:35 | 53.64577 | 158.00199 | 30257 ft | 428 kts | 340° |
| 2026-04-24 07:35 | 53.67342 | 157.98279 | 30589 ft | 431 kts | 334° |
| 2026-04-24 07:35 | 53.69969 | 157.95823 | 31010 ft | 432 kts | 330° |
| 2026-04-24 07:35 | 53.72528 | 157.93192 | 31474 ft | 431 kts | 329° |
| 2026-04-24 07:36 | 53.75100 | 157.90589 | 31893 ft | 431 kts | 331° |
| 2026-04-24 07:36 | 53.77696 | 157.88049 | 32254 ft | 432 kts | 331° |
| 2026-04-24 07:36 | 53.80307 | 157.85531 | 32599 ft | 433 kts | 331° |
| 2026-04-24 07:36 | 53.82891 | 157.83025 | 33001 ft | 433 kts | 331° |
| 2026-04-24 07:37 | 53.85538 | 157.80449 | 33401 ft | 433 kts | 331° |
| 2026-04-24 07:37 | 53.88113 | 157.77934 | 33739 ft | 434 kts | 331° |
| 2026-04-24 07:37 | 53.90767 | 157.75335 | 34041 ft | 435 kts | 330° |
| 2026-04-24 07:37 | 53.93358 | 157.72793 | 34369 ft | 435 kts | 330° |
| 2026-04-24 07:38 | 53.95977 | 157.70221 | 34664 ft | 435 kts | 330° |
| 2026-04-24 07:38 | 53.98596 | 157.67647 | 34969 ft | 435 kts | 330° |
| 2026-04-24 07:38 | 54.01212 | 157.65071 | 35273 ft | 435 kts | 330° |
| 2026-04-24 07:38 | 54.03827 | 157.62494 | 35585 ft | 434 kts | 330° |
| 2026-04-24 07:39 | 54.06443 | 157.59913 | 35839 ft | 436 kts | 330° |
| 2026-04-24 07:39 | 54.09067 | 157.57319 | 36182 ft | 434 kts | 330° |
| 2026-04-24 07:39 | 54.11680 | 157.54734 | 36458 ft | 435 kts | 330° |
| 2026-04-24 07:39 | 54.14303 | 157.52142 | 36712 ft | 435 kts | 330° |
| 2026-04-24 07:40 | 54.16914 | 157.49565 | 37026 ft | 434 kts | 330° |
| 2026-04-24 07:40 | 54.19532 | 157.46978 | 37177 ft | 437 kts | 330° |
| 2026-04-24 07:40 | 54.22171 | 157.44367 | 37295 ft | 440 kts | 330° |
| 2026-04-24 07:40 | 54.24828 | 157.41733 | 37575 ft | 439 kts | 330° |
| 2026-04-24 07:41 | 54.27471 | 157.39107 | 37847 ft | 439 kts | 330° |
| 2026-04-24 07:41 | 54.30093 | 157.36499 | 37810 ft | 443 kts | 330° |
| 2026-04-24 07:41 | 54.35395 | 157.31212 | 37816 ft | 439 kts | 330° |
| 2026-04-24 07:42 | 54.40658 | 157.25946 | 37827 ft | 436 kts | 330° |
| 2026-04-24 07:42 | 54.45889 | 157.20697 | 37830 ft | 434 kts | 330° |
| 2026-04-24 07:43 | 54.51094 | 157.15459 | 37839 ft | 433 kts | 330° |
| 2026-04-24 07:43 | 54.56294 | 157.10212 | 37839 ft | 433 kts | 330° |
| 2026-04-24 07:44 | 54.61444 | 157.04997 | 37842 ft | 434 kts | 330° |
| 2026-04-24 07:44 | 54.66667 | 156.99701 | 37849 ft | 435 kts | 330° |
| 2026-04-24 07:45 | 54.71901 | 156.94393 | 37848 ft | 437 kts | 330° |
| 2026-04-24 07:45 | 54.77148 | 156.89056 | 37859 ft | 438 kts | 330° |
| 2026-04-24 07:46 | 54.82418 | 156.83676 | 37875 ft | 440 kts | 330° |
| 2026-04-24 07:46 | 54.87693 | 156.78272 | 37868 ft | 441 kts | 330° |
| 2026-04-24 07:47 | 54.92953 | 156.72829 | 37876 ft | 436 kts | 330° |
| 2026-04-24 07:47 | 54.98120 | 156.67467 | 37884 ft | 428 kts | 330° |
| 2026-04-24 07:48 | 55.03200 | 156.62211 | 37901 ft | 429 kts | 330° |
| 2026-04-24 07:48 | 55.08377 | 156.56843 | 37907 ft | 436 kts | 330° |
| 2026-04-24 07:49 | 55.13621 | 156.51385 | 37919 ft | 439 kts | 330° |
| 2026-04-24 07:49 | 55.18857 | 156.45921 | 37909 ft | 436 kts | 330° |
| 2026-04-24 07:50 | 55.24035 | 156.40498 | 37914 ft | 431 kts | 330° |
| 2026-04-24 07:50 | 55.29161 | 156.35110 | 37921 ft | 429 kts | 330° |
| 2026-04-24 07:51 | 55.34292 | 156.29711 | 37928 ft | 433 kts | 330° |
| 2026-04-24 07:51 | 55.39504 | 156.24203 | 37950 ft | 439 kts | 329° |
| 2026-04-24 07:52 | 55.44704 | 156.18649 | 37937 ft | 438 kts | 330° |
| 2026-04-24 07:52 | 55.49863 | 156.13114 | 37947 ft | 432 kts | 330° |
| 2026-04-24 07:53 | 55.54995 | 156.07613 | 37940 ft | 430 kts | 329° |
| 2026-04-24 07:53 | 55.60144 | 156.02087 | 37970 ft | 436 kts | 330° |
| 2026-04-24 07:54 | 55.65364 | 155.96463 | 37971 ft | 442 kts | 329° |
| 2026-04-24 07:54 | 55.70631 | 155.90766 | 37962 ft | 443 kts | 330° |
| 2026-04-24 07:55 | 55.75850 | 155.85099 | 37960 ft | 435 kts | 329° |
| 2026-04-24 07:55 | 55.80961 | 155.79534 | 37961 ft | 432 kts | 330° |
| 2026-04-24 07:56 | 55.86065 | 155.73965 | 37979 ft | 430 kts | 329° |
| 2026-04-24 07:56 | 55.91180 | 155.68367 | 37985 ft | 429 kts | 330° |
| 2026-04-24 07:57 | 55.96267 | 155.62779 | 38005 ft | 435 kts | 329° |
| 2026-04-24 07:57 | 56.01450 | 155.57067 | 37992 ft | 440 kts | 329° |
| 2026-04-24 07:58 | 56.06668 | 155.51299 | 37991 ft | 440 kts | 330° |
| 2026-04-24 07:58 | 56.11831 | 155.45568 | 37984 ft | 433 kts | 329° |
| 2026-04-24 07:59 | 56.16926 | 155.39900 | 37999 ft | 430 kts | 329° |
| 2026-04-24 07:59 | 56.22009 | 155.34290 | 38013 ft | 428 kts | 330° |
| 2026-04-24 08:00 | 56.27107 | 155.28725 | 38011 ft | 430 kts | 330° |
| 2026-04-24 08:00 | 56.32257 | 155.23077 | 38014 ft | 436 kts | 331° |
| 2026-04-24 08:01 | 56.37455 | 155.17351 | 38010 ft | 439 kts | 330° |
| 2026-04-24 08:01 | 56.42635 | 155.11623 | 38001 ft | 434 kts | 330° |
| 2026-04-24 08:02 | 56.47748 | 155.05954 | 38016 ft | 429 kts | 330° |
| 2026-04-24 08:02 | 56.52827 | 155.00295 | 38014 ft | 428 kts | 330° |
| 2026-04-24 08:03 | 56.57893 | 154.94642 | 38017 ft | 427 kts | 330° |
| 2026-04-24 08:03 | 56.62914 | 154.89013 | 38016 ft | 428 kts | 330° |
| 2026-04-24 08:04 | 56.68016 | 154.83285 | 38026 ft | 434 kts | 330° |
| 2026-04-24 08:04 | 56.73185 | 154.77462 | 38036 ft | 439 kts | 330° |
| 2026-04-24 08:05 | 56.78379 | 154.71586 | 38015 ft | 438 kts | 330° |
| 2026-04-24 08:05 | 56.83525 | 154.65734 | 38020 ft | 431 kts | 330° |
| 2026-04-24 08:06 | 56.88606 | 154.59950 | 38021 ft | 429 kts | 330° |
| 2026-04-24 08:06 | 56.93666 | 154.54167 | 38032 ft | 427 kts | 330° |
| 2026-04-24 08:07 | 56.98711 | 154.48390 | 38050 ft | 430 kts | 329° |
| 2026-04-24 08:07 | 57.03786 | 154.42558 | 38042 ft | 434 kts | 330° |
| 2026-04-24 08:08 | 57.08918 | 154.36640 | 38043 ft | 437 kts | 330° |
| 2026-04-24 08:09 | 57.16656 | 154.27677 | 38052 ft | 438 kts | 330° |
| 2026-04-24 08:09 | 57.21823 | 154.21654 | 38037 ft | 438 kts | 329° |
| 2026-04-24 08:10 | 57.26951 | 154.15565 | 38049 ft | 437 kts | 329° |
| 2026-04-24 08:10 | 57.32018 | 154.09512 | 38051 ft | 435 kts | 329° |
| 2026-04-24 08:11 | 57.37086 | 154.03446 | 38061 ft | 433 kts | 329° |
| 2026-04-24 08:11 | 57.42148 | 153.97376 | 38057 ft | 432 kts | 329° |
| 2026-04-24 08:12 | 57.47179 | 153.91324 | 38049 ft | 430 kts | 329° |
| 2026-04-24 08:12 | 57.52204 | 153.85257 | 38057 ft | 430 kts | 329° |
| 2026-04-24 08:13 | 57.57216 | 153.79186 | 38065 ft | 429 kts | 329° |
| 2026-04-24 08:13 | 57.62211 | 153.73117 | 38066 ft | 428 kts | 329° |
| 2026-04-24 08:14 | 57.67175 | 153.67064 | 38070 ft | 428 kts | 329° |
| 2026-04-24 08:14 | 57.72167 | 153.60957 | 38065 ft | 429 kts | 329° |
| 2026-04-24 08:15 | 57.77155 | 153.54838 | 38072 ft | 429 kts | 329° |
| 2026-04-24 08:15 | 57.81346 | 153.49681 | 38076 ft | 430 kts | 329° |
| 2026-04-24 08:16 | 57.86352 | 153.43526 | 38077 ft | 431 kts | 329° |
| 2026-04-24 08:16 | 57.91343 | 153.37371 | 38078 ft | 432 kts | 328° |
| 2026-04-24 08:17 | 57.96379 | 153.31139 | 38073 ft | 433 kts | 328° |
| 2026-04-24 08:17 | 58.01417 | 153.24884 | 38080 ft | 434 kts | 328° |
| 2026-04-24 08:18 | 58.06455 | 153.18604 | 38079 ft | 434 kts | 328° |
| 2026-04-24 08:18 | 58.11499 | 153.12296 | 38077 ft | 435 kts | 328° |
| 2026-04-24 08:19 | 58.16545 | 153.05964 | 38079 ft | 435 kts | 328° |
| 2026-04-24 08:19 | 58.21544 | 152.99505 | 38077 ft | 434 kts | 327° |
| 2026-04-24 08:20 | 58.26467 | 152.92851 | 38081 ft | 434 kts | 327° |
| 2026-04-24 08:20 | 58.31368 | 152.86289 | 38077 ft | 433 kts | 327° |
| 2026-04-24 08:21 | 58.36299 | 152.79704 | 38082 ft | 432 kts | 327° |
| 2026-04-24 08:21 | 58.41209 | 152.73116 | 38070 ft | 432 kts | 327° |
| 2026-04-24 08:22 | 58.46133 | 152.66480 | 37569 ft | 436 kts | 327° |
| 2026-04-24 08:22 | 58.48601 | 152.63146 | 37045 ft | 433 kts | 327° |
| 2026-04-24 08:22 | 58.51055 | 152.59821 | 36393 ft | 431 kts | 327° |
| 2026-04-24 08:22 | 58.53495 | 152.56512 | 35808 ft | 428 kts | 327° |
| 2026-04-24 08:23 | 58.55908 | 152.53233 | 35332 ft | 423 kts | 327° |
| 2026-04-24 08:23 | 58.58298 | 152.49999 | 34859 ft | 417 kts | 328° |
| 2026-04-24 08:23 | 58.60684 | 152.46905 | 34418 ft | 411 kts | 329° |
| 2026-04-24 08:23 | 58.63056 | 152.43894 | 33934 ft | 407 kts | 329° |
| 2026-04-24 08:24 | 58.65399 | 152.40923 | 33363 ft | 402 kts | 329° |
| 2026-04-24 08:24 | 58.67717 | 152.37967 | 32894 ft | 396 kts | 329° |
| 2026-04-24 08:24 | 58.69969 | 152.35077 | 32406 ft | 392 kts | 329° |
| 2026-04-24 08:24 | 58.72244 | 152.32142 | 31936 ft | 387 kts | 329° |
| 2026-04-24 08:25 | 58.74467 | 152.29267 | 31482 ft | 383 kts | 329° |
| 2026-04-24 08:25 | 58.76640 | 152.26448 | 31035 ft | 379 kts | 328° |
| 2026-04-24 08:25 | 58.78843 | 152.23582 | 30589 ft | 375 kts | 328° |
| 2026-04-24 08:25 | 58.80995 | 152.20777 | 30151 ft | 372 kts | 328° |
| 2026-04-24 08:26 | 58.83102 | 152.18027 | 29651 ft | 369 kts | 328° |
| 2026-04-24 08:26 | 58.85215 | 152.15265 | 29186 ft | 364 kts | 328° |
| 2026-04-24 08:26 | 58.87294 | 152.12543 | 28745 ft | 359 kts | 329° |
| 2026-04-24 08:26 | 58.89346 | 152.09853 | 28292 ft | 354 kts | 329° |
| 2026-04-24 08:27 | 58.91374 | 152.07192 | 27875 ft | 349 kts | 329° |
| 2026-04-24 08:27 | 58.93368 | 152.04569 | 27436 ft | 345 kts | 329° |
| 2026-04-24 08:27 | 58.95343 | 152.01967 | 27035 ft | 341 kts | 329° |
| 2026-04-24 08:27 | 58.97297 | 151.99391 | 26594 ft | 338 kts | 329° |
| 2026-04-24 08:28 | 58.99236 | 151.96831 | 26180 ft | 335 kts | 329° |
| 2026-04-24 08:28 | 59.01153 | 151.94303 | 25768 ft | 332 kts | 329° |
| 2026-04-24 08:28 | 59.03055 | 151.91790 | 25357 ft | 329 kts | 329° |
| 2026-04-24 08:28 | 59.04944 | 151.89295 | 24966 ft | 326 kts | 330° |
| 2026-04-24 08:29 | 59.06809 | 151.86819 | 24574 ft | 324 kts | 330° |
| 2026-04-24 08:29 | 59.08665 | 151.84349 | 24181 ft | 322 kts | 330° |
| 2026-04-24 08:29 | 59.10507 | 151.81905 | 23784 ft | 320 kts | 330° |
| 2026-04-24 08:29 | 59.12345 | 151.79478 | 23331 ft | 318 kts | 330° |
| 2026-04-24 08:30 | 59.14172 | 151.77064 | 22892 ft | 315 kts | 330° |
| 2026-04-24 08:30 | 59.15970 | 151.74685 | 22515 ft | 311 kts | 330° |
| 2026-04-24 08:30 | 59.17752 | 151.72322 | 22135 ft | 307 kts | 330° |
| 2026-04-24 08:30 | 59.19506 | 151.69994 | 21753 ft | 303 kts | 330° |
| 2026-04-24 08:31 | 59.21218 | 151.67719 | 21375 ft | 300 kts | 330° |
| 2026-04-24 08:31 | 59.22932 | 151.65439 | 21009 ft | 297 kts | 331° |
| 2026-04-24 08:31 | 59.24630 | 151.63179 | 20639 ft | 294 kts | 331° |
| 2026-04-24 08:31 | 59.26313 | 151.60937 | 20274 ft | 291 kts | 331° |
| 2026-04-24 08:32 | 59.27982 | 151.58707 | 19915 ft | 289 kts | 331° |
| 2026-04-24 08:32 | 59.29632 | 151.56501 | 19556 ft | 286 kts | 331° |
| 2026-04-24 08:32 | 59.31261 | 151.54280 | 19199 ft | 285 kts | 327° |
| 2026-04-24 08:32 | 59.32651 | 151.51439 | 18866 ft | 290 kts | 316° |
| 2026-04-24 08:33 | 59.33897 | 151.48358 | 18519 ft | 288 kts | 315° |
| 2026-04-24 08:33 | 59.35122 | 151.45262 | 18140 ft | 287 kts | 315° |
| 2026-04-24 08:33 | 59.36339 | 151.42188 | 17754 ft | 284 kts | 315° |
| 2026-04-24 08:33 | 59.37549 | 151.39142 | 17396 ft | 280 kts | 315° |
| 2026-04-24 08:34 | 59.38740 | 151.36149 | 17066 ft | 277 kts | 315° |
| 2026-04-24 08:34 | 59.39922 | 151.33188 | 16733 ft | 275 kts | 315° |
| 2026-04-24 08:34 | 59.41094 | 151.30262 | 16383 ft | 277 kts | 315° |
| 2026-04-24 08:34 | 59.42293 | 151.27271 | 16041 ft | 281 kts | 315° |
| 2026-04-24 08:35 | 59.43530 | 151.24188 | 15690 ft | 287 kts | 315° |
| 2026-04-24 08:35 | 59.44774 | 151.21085 | 15335 ft | 289 kts | 314° |
| 2026-04-24 08:35 | 59.45994 | 151.18026 | 14974 ft | 286 kts | 314° |
| 2026-04-24 08:35 | 59.47219 | 151.14950 | 14615 ft | 284 kts | 314° |
| 2026-04-24 08:36 | 59.48445 | 151.11868 | 14268 ft | 282 kts | 314° |
| 2026-04-24 08:36 | 59.49648 | 151.08842 | 13927 ft | 279 kts | 314° |
| 2026-04-24 08:36 | 59.50842 | 151.05838 | 13548 ft | 277 kts | 314° |
| 2026-04-24 08:36 | 59.52023 | 151.02864 | 13201 ft | 274 kts | 314° |
| 2026-04-24 08:37 | 59.53193 | 150.99914 | 12856 ft | 271 kts | 314° |
| 2026-04-24 08:37 | 59.54345 | 150.97002 | 12520 ft | 269 kts | 314° |
| 2026-04-24 08:37 | 59.55492 | 150.94103 | 12178 ft | 266 kts | 314° |
| 2026-04-24 08:37 | 59.56621 | 150.91248 | 11860 ft | 263 kts | 314° |
| 2026-04-24 08:38 | 59.57739 | 150.88417 | 11529 ft | 260 kts | 314° |
| 2026-04-24 08:38 | 59.58844 | 150.85614 | 11205 ft | 258 kts | 313° |
| 2026-04-24 08:38 | 59.59944 | 150.82821 | 10884 ft | 258 kts | 313° |
| 2026-04-24 08:38 | 59.61058 | 150.79998 | 10574 ft | 264 kts | 313° |
| 2026-04-24 08:39 | 59.62209 | 150.77078 | 10240 ft | 271 kts | 313° |
| 2026-04-24 08:39 | 59.63346 | 150.74183 | 10124 ft | 264 kts | 313° |
| 2026-04-24 08:39 | 59.64453 | 150.71348 | 9847 ft | 259 kts | 313° |
| 2026-04-24 08:39 | 59.65554 | 150.68532 | 9502 ft | 258 kts | 313° |
| 2026-04-24 08:40 | 59.66646 | 150.65737 | 9188 ft | 256 kts | 313° |
| 2026-04-24 08:40 | 59.67724 | 150.62975 | 8908 ft | 251 kts | 313° |
| 2026-04-24 08:40 | 59.68789 | 150.60247 | 8597 ft | 250 kts | 313° |
| 2026-04-24 08:40 | 59.69866 | 150.57488 | 8269 ft | 250 kts | 313° |
| 2026-04-24 08:41 | 59.70923 | 150.54772 | 7983 ft | 249 kts | 313° |
| 2026-04-24 08:41 | 59.71976 | 150.52065 | 7700 ft | 247 kts | 313° |
| 2026-04-24 08:41 | 59.73026 | 150.49360 | 7395 ft | 247 kts | 312° |
| 2026-04-24 08:41 | 59.74066 | 150.46666 | 7115 ft | 245 kts | 312° |
| 2026-04-24 08:42 | 59.75105 | 150.43983 | 6809 ft | 245 kts | 312° |
| 2026-04-24 08:42 | 59.76141 | 150.41304 | 6520 ft | 244 kts | 312° |
| 2026-04-24 08:42 | 59.77170 | 150.38641 | 6186 ft | 242 kts | 310° |
| 2026-04-24 08:42 | 59.78189 | 150.35996 | 5896 ft | 240 kts | 310° |
| 2026-04-24 08:43 | 59.79201 | 150.33366 | 5606 ft | 239 kts | 310° |
| 2026-04-24 08:43 | 59.80210 | 150.30743 | 5316 ft | 238 kts | 311° |
| 2026-04-24 08:43 | 59.81462 | 150.28723 | 5053 ft | 230 kts | 341° |
| 2026-04-24 08:43 | 59.83015 | 150.28158 | 4877 ft | 229 kts | 0° |
| 2026-04-24 08:44 | 59.84605 | 150.28253 | 4661 ft | 227 kts | 4° |
| 2026-04-24 08:44 | 59.86165 | 150.28432 | 4449 ft | 223 kts | 4° |
| 2026-04-24 08:44 | 59.87699 | 150.28616 | 4258 ft | 219 kts | 4° |
| 2026-04-24 08:44 | 59.89205 | 150.28778 | 4056 ft | 215 kts | 4° |
| 2026-04-24 08:45 | 59.90662 | 150.29059 | 3902 ft | 206 kts | 17° |
| 2026-04-24 08:45 | 59.91753 | 150.30679 | 3712 ft | 195 kts | 57° |
| 2026-04-24 08:45 | 59.92103 | 150.33210 | 3553 ft | 187 kts | 86° |
| 2026-04-24 08:45 | 59.92046 | 150.35724 | 3407 ft | 176 kts | 88° |
| 2026-04-24 08:46 | 59.91980 | 150.38077 | 3243 ft | 163 kts | 88° |
| 2026-04-24 08:46 | 59.91919 | 150.40288 | 3100 ft | 159 kts | 88° |
| 2026-04-24 08:46 | 59.91860 | 150.42543 | 2993 ft | 167 kts | 87° |
| 2026-04-24 08:46 | 59.91823 | 150.44867 | 2865 ft | 168 kts | 86° |
| 2026-04-24 08:47 | 59.91782 | 150.47201 | 2780 ft | 167 kts | 87° |
| 2026-04-24 08:47 | 59.91722 | 150.49496 | 2608 ft | 165 kts | 88° |
| 2026-04-24 08:47 | 59.91658 | 150.51718 | 2357 ft | 154 kts | 89° |
| 2026-04-24 08:47 | 59.91599 | 150.53759 | 2131 ft | 141 kts | 88° |
| 2026-04-24 08:48 | 59.91547 | 150.55609 | 1937 ft | 133 kts | 89° |
| 2026-04-24 08:48 | 59.91497 | 150.57442 | 1742 ft | 131 kts | 89° |
| 2026-04-24 08:48 | 59.91446 | 150.59254 | 1542 ft | 131 kts | 91° |
| 2026-04-24 08:48 | 59.91395 | 150.61077 | 1364 ft | 130 kts | 91° |
| 2026-04-24 08:49 | 59.91345 | 150.62884 | 1186 ft | 131 kts | 92° |
| 2026-04-24 08:49 | 59.91295 | 150.64689 | 1023 ft | 130 kts | 90° |
| 2026-04-24 08:49 | 59.91233 | 150.66515 | 894 ft | 135 kts | 95° |
| 2026-04-24 08:49 | 59.91174 | 150.68411 | 681 ft | 136 kts | 88° |
| 2026-04-24 08:50 | 59.91160 | 150.69678 | 592 ft | 133 kts | 91° |
| 2026-04-24 08:50 | 59.91120 | 150.71321 | 584 ft | 99 kts | 93° |
| 2026-04-24 08:50 | 59.91097 | 150.72205 | 580 ft | 35 kts | 93° |
| 2026-04-24 08:50 | 59.91084 | 150.72534 | 582 ft | 15 kts | 94° |
| 2026-04-24 08:51 | 59.91127 | 150.72672 | 583 ft | 10 kts | 14° |
| 2026-04-24 08:51 | 59.91198 | 150.72685 | 582 ft | 10 kts | 5° |
| 2026-04-24 08:51 | 59.91267 | 150.72681 | 582 ft | 10 kts | 342° |
| 2026-04-24 08:51 | 59.91300 | 150.72574 | 582 ft | 9 kts | 276° |
| 2026-04-24 08:52 | 59.91303 | 150.72444 | 582 ft | 9 kts | 273° |
| 2026-04-24 08:52 | 59.91306 | 150.72318 | 582 ft | 9 kts | 273° |
| 2026-04-24 08:52 | 59.91309 | 150.72196 | 582 ft | 9 kts | 272° |
| 2026-04-24 08:52 | 59.91331 | 150.72095 | 582 ft | 9 kts | 339° |
| 2026-04-24 08:53 | 59.91373 | 150.72097 | 582 ft | 1 kts | 4° |
| 2026-04-24 08:53 | 59.91376 | 150.72097 | 582 ft | 0 kts | 4° |